sensor_id;sensor_type;location;lat;lon;timestamp;P1;durP1;ratioP1;P2;durP2;ratioP2
34814;SDS011;21030;53.912;15.214;2023-01-24T00:01:02;11.27;;;2.08;;
34814;SDS011;21030;53.912;15.214;2023-01-24T00:03:30;3.90;;;1.02;;
34814;SDS011;21030;53.912;15.214;2023-01-24T00:05:57;3.97;;;1.30;;
34814;SDS011;21030;53.912;15.214;2023-01-24T00:08:24;4.53;;;0.77;;
34814;SDS011;21030;53.912;15.214;2023-01-24T00:10:58;0.52;;;0.52;;
34814;SDS011;21030;53.912;15.214;2023-01-24T00:13:27;0.80;;;0.70;;
34814;SDS011;21030;53.912;15.214;2023-01-24T00:18:41;2.58;;;1.55;;
34814;SDS011;21030;53.912;15.214;2023-01-24T00:21:11;1.73;;;0.65;;
34814;SDS011;21030;53.912;15.214;2023-01-24T00:23:41;3.00;;;1.42;;
34814;SDS011;21030;53.912;15.214;2023-01-24T00:26:09;1.17;;;0.65;;
34814;SDS011;21030;53.912;15.214;2023-01-24T00:28:37;3.15;;;0.90;;
34814;SDS011;21030;53.912;15.214;2023-01-24T00:31:04;0.50;;;0.38;;
34814;SDS011;21030;53.912;15.214;2023-01-24T00:33:32;1.17;;;0.73;;
34814;SDS011;21030;53.912;15.214;2023-01-24T00:36:00;4.03;;;2.22;;
34814;SDS011;21030;53.912;15.214;2023-01-24T00:38:28;1.98;;;1.33;;
34814;SDS011;21030;53.912;15.214;2023-01-24T00:40:56;1.75;;;0.63;;
34814;SDS011;21030;53.912;15.214;2023-01-24T00:43:24;0.68;;;0.45;;
34814;SDS011;21030;53.912;15.214;2023-01-24T00:45:53;1.23;;;0.88;;
34814;SDS011;21030;53.912;15.214;2023-01-24T00:48:20;2.25;;;0.93;;
34814;SDS011;21030;53.912;15.214;2023-01-24T00:50:48;2.78;;;1.83;;
34814;SDS011;21030;53.912;15.214;2023-01-24T00:53:15;0.57;;;0.35;;
34814;SDS011;21030;53.912;15.214;2023-01-24T00:55:43;0.30;;;0.20;;
34814;SDS011;21030;53.912;15.214;2023-01-24T00:58:12;0.30;;;0.22;;
34814;SDS011;21030;53.912;15.214;2023-01-24T01:00:39;1.38;;;0.93;;
34814;SDS011;21030;53.912;15.214;2023-01-24T01:03:07;5.13;;;1.17;;
34814;SDS011;21030;53.912;15.214;2023-01-24T01:05:38;3.67;;;2.08;;
34814;SDS011;21030;53.912;15.214;2023-01-24T01:08:06;1.55;;;1.05;;
34814;SDS011;21030;53.912;15.214;2023-01-24T01:10:33;2.80;;;1.48;;
34814;SDS011;21030;53.912;15.214;2023-01-24T01:13:01;1.98;;;1.35;;
34814;SDS011;21030;53.912;15.214;2023-01-24T01:15:28;1.67;;;1.13;;
34814;SDS011;21030;53.912;15.214;2023-01-24T01:17:56;2.45;;;1.05;;
34814;SDS011;21030;53.912;15.214;2023-01-24T01:20:24;1.73;;;0.90;;
34814;SDS011;21030;53.912;15.214;2023-01-24T01:22:53;0.77;;;0.77;;
34814;SDS011;21030;53.912;15.214;2023-01-24T01:25:20;10.65;;;1.48;;
34814;SDS011;21030;53.912;15.214;2023-01-24T01:27:47;1.38;;;0.75;;
34814;SDS011;21030;53.912;15.214;2023-01-24T01:30:14;3.55;;;1.40;;
34814;SDS011;21030;53.912;15.214;2023-01-24T01:32:42;1.13;;;0.77;;
34814;SDS011;21030;53.912;15.214;2023-01-24T01:35:09;0.63;;;0.45;;
34814;SDS011;21030;53.912;15.214;2023-01-24T01:37:36;0.38;;;0.32;;
34814;SDS011;21030;53.912;15.214;2023-01-24T01:40:03;0.57;;;0.57;;
34814;SDS011;21030;53.912;15.214;2023-01-24T01:45:36;0.10;;;0.10;;
34814;SDS011;21030;53.912;15.214;2023-01-24T01:48:17;0.40;;;0.40;;
34814;SDS011;21030;53.912;15.214;2023-01-24T01:53:33;0.85;;;0.55;;
34814;SDS011;21030;53.912;15.214;2023-01-24T01:56:11;1.02;;;0.52;;
34814;SDS011;21030;53.912;15.214;2023-01-24T01:58:50;0.28;;;0.28;;
34814;SDS011;21030;53.912;15.214;2023-01-24T02:01:19;0.88;;;0.50;;
34814;SDS011;21030;53.912;15.214;2023-01-24T02:03:49;2.42;;;0.60;;
34814;SDS011;21030;53.912;15.214;2023-01-24T02:06:30;2.25;;;1.65;;
34814;SDS011;21030;53.912;15.214;2023-01-24T02:09:21;0.75;;;0.35;;
34814;SDS011;21030;53.912;15.214;2023-01-24T02:14:20;0.47;;;0.47;;
34814;SDS011;21030;53.912;15.214;2023-01-24T02:17:08;3.13;;;1.17;;
34814;SDS011;21030;53.912;15.214;2023-01-24T02:22:48;0.88;;;0.80;;
34814;SDS011;21030;53.912;15.214;2023-01-24T02:28:39;1.40;;;1.00;;
34814;SDS011;21030;53.912;15.214;2023-01-24T02:31:10;1.83;;;1.65;;
34814;SDS011;21030;53.912;15.214;2023-01-24T02:33:37;2.15;;;1.50;;
34814;SDS011;21030;53.912;15.214;2023-01-24T02:41:30;3.20;;;0.35;;
34814;SDS011;21030;53.912;15.214;2023-01-24T02:44:05;0.43;;;0.40;;
34814;SDS011;21030;53.912;15.214;2023-01-24T02:46:38;2.80;;;1.13;;
34814;SDS011;21030;53.912;15.214;2023-01-24T02:49:08;0.73;;;0.60;;
34814;SDS011;21030;53.912;15.214;2023-01-24T02:51:36;3.35;;;1.25;;
34814;SDS011;21030;53.912;15.214;2023-01-24T02:54:22;2.47;;;0.80;;
34814;SDS011;21030;53.912;15.214;2023-01-24T02:56:49;1.80;;;0.90;;
34814;SDS011;21030;53.912;15.214;2023-01-24T02:59:35;0.28;;;0.28;;
34814;SDS011;21030;53.912;15.214;2023-01-24T03:02:02;0.95;;;0.73;;
34814;SDS011;21030;53.912;15.214;2023-01-24T03:04:29;1.42;;;1.08;;
34814;SDS011;21030;53.912;15.214;2023-01-24T03:06:56;1.90;;;1.42;;
34814;SDS011;21030;53.912;15.214;2023-01-24T03:09:24;2.00;;;1.15;;
34814;SDS011;21030;53.912;15.214;2023-01-24T03:12:00;1.98;;;1.33;;
34814;SDS011;21030;53.912;15.214;2023-01-24T03:14:47;1.45;;;0.55;;
34814;SDS011;21030;53.912;15.214;2023-01-24T03:17:33;2.97;;;1.25;;
34814;SDS011;21030;53.912;15.214;2023-01-24T03:20:18;0.98;;;0.85;;
34814;SDS011;21030;53.912;15.214;2023-01-24T03:23:04;0.77;;;0.57;;
34814;SDS011;21030;53.912;15.214;2023-01-24T03:25:52;0.65;;;0.63;;
34814;SDS011;21030;53.912;15.214;2023-01-24T03:28:39;3.05;;;1.95;;
34814;SDS011;21030;53.912;15.214;2023-01-24T03:31:25;3.20;;;1.80;;
34814;SDS011;21030;53.912;15.214;2023-01-24T03:34:11;1.08;;;0.47;;
34814;SDS011;21030;53.912;15.214;2023-01-24T03:36:58;1.25;;;1.08;;
34814;SDS011;21030;53.912;15.214;2023-01-24T03:39:26;0.50;;;0.35;;
34814;SDS011;21030;53.912;15.214;2023-01-24T03:42:11;1.75;;;1.15;;
34814;SDS011;21030;53.912;15.214;2023-01-24T03:44:41;1.57;;;1.03;;
34814;SDS011;21030;53.912;15.214;2023-01-24T03:47:09;1.17;;;0.40;;
34814;SDS011;21030;53.912;15.214;2023-01-24T03:49:36;0.85;;;0.43;;
34814;SDS011;21030;53.912;15.214;2023-01-24T03:52:22;1.27;;;0.77;;
34814;SDS011;21030;53.912;15.214;2023-01-24T03:54:55;0.85;;;0.85;;
34814;SDS011;21030;53.912;15.214;2023-01-24T03:57:24;1.58;;;0.70;;
34814;SDS011;21030;53.912;15.214;2023-01-24T03:59:52;1.85;;;0.82;;
34814;SDS011;21030;53.912;15.214;2023-01-24T04:02:19;1.42;;;1.30;;
34814;SDS011;21030;53.912;15.214;2023-01-24T04:04:47;1.75;;;0.77;;
34814;SDS011;21030;53.912;15.214;2023-01-24T04:07:32;0.93;;;0.50;;
34814;SDS011;21030;53.912;15.214;2023-01-24T04:10:00;0.60;;;0.47;;
34814;SDS011;21030;53.912;15.214;2023-01-24T04:12:27;1.73;;;0.80;;
34814;SDS011;21030;53.912;15.214;2023-01-24T04:14:54;1.58;;;1.48;;
34814;SDS011;21030;53.912;15.214;2023-01-24T04:17:21;0.52;;;0.35;;
34814;SDS011;21030;53.912;15.214;2023-01-24T04:19:48;0.75;;;0.35;;
34814;SDS011;21030;53.912;15.214;2023-01-24T04:22:15;1.38;;;1.27;;
34814;SDS011;21030;53.912;15.214;2023-01-24T04:24:43;1.90;;;0.90;;
34814;SDS011;21030;53.912;15.214;2023-01-24T04:27:11;1.08;;;0.98;;
34814;SDS011;21030;53.912;15.214;2023-01-24T04:29:38;2.35;;;1.27;;
34814;SDS011;21030;53.912;15.214;2023-01-24T04:32:05;2.42;;;1.30;;
34814;SDS011;21030;53.912;15.214;2023-01-24T04:34:33;0.40;;;0.22;;
34814;SDS011;21030;53.912;15.214;2023-01-24T04:37:00;0.70;;;0.70;;
34814;SDS011;21030;53.912;15.214;2023-01-24T04:39:27;2.75;;;1.05;;
34814;SDS011;21030;53.912;15.214;2023-01-24T04:41:54;1.35;;;1.23;;
34814;SDS011;21030;53.912;15.214;2023-01-24T04:44:22;10.65;;;1.63;;
34814;SDS011;21030;53.912;15.214;2023-01-24T04:46:49;1.55;;;0.60;;
34814;SDS011;21030;53.912;15.214;2023-01-24T04:49:16;2.28;;;1.92;;
34814;SDS011;21030;53.912;15.214;2023-01-24T04:51:46;0.70;;;0.52;;
34814;SDS011;21030;53.912;15.214;2023-01-24T04:54:13;4.00;;;2.17;;
34814;SDS011;21030;53.912;15.214;2023-01-24T04:56:41;0.95;;;0.85;;
34814;SDS011;21030;53.912;15.214;2023-01-24T04:59:10;0.28;;;0.28;;
34814;SDS011;21030;53.912;15.214;2023-01-24T05:01:38;7.22;;;1.15;;
34814;SDS011;21030;53.912;15.214;2023-01-24T05:04:06;1.20;;;0.75;;
34814;SDS011;21030;53.912;15.214;2023-01-24T05:06:33;5.85;;;3.10;;
34814;SDS011;21030;53.912;15.214;2023-01-24T05:09:00;6.63;;;3.63;;
34814;SDS011;21030;53.912;15.214;2023-01-24T05:11:28;5.38;;;3.20;;
34814;SDS011;21030;53.912;15.214;2023-01-24T05:13:55;2.13;;;1.65;;
34814;SDS011;21030;53.912;15.214;2023-01-24T05:16:22;3.38;;;2.00;;
34814;SDS011;21030;53.912;15.214;2023-01-24T05:18:49;3.70;;;2.45;;
34814;SDS011;21030;53.912;15.214;2023-01-24T05:21:17;3.45;;;2.63;;
34814;SDS011;21030;53.912;15.214;2023-01-24T05:23:49;3.38;;;1.90;;
34814;SDS011;21030;53.912;15.214;2023-01-24T05:26:18;2.35;;;1.35;;
34814;SDS011;21030;53.912;15.214;2023-01-24T05:28:46;2.47;;;1.77;;
34814;SDS011;21030;53.912;15.214;2023-01-24T05:31:13;5.38;;;1.85;;
34814;SDS011;21030;53.912;15.214;2023-01-24T05:33:40;3.88;;;2.25;;
34814;SDS011;21030;53.912;15.214;2023-01-24T05:36:09;3.25;;;2.90;;
34814;SDS011;21030;53.912;15.214;2023-01-24T05:38:45;2.15;;;1.40;;
34814;SDS011;21030;53.912;15.214;2023-01-24T05:41:14;3.17;;;2.28;;
34814;SDS011;21030;53.912;15.214;2023-01-24T05:43:43;2.10;;;1.90;;
34814;SDS011;21030;53.912;15.214;2023-01-24T05:46:13;5.05;;;2.97;;
34814;SDS011;21030;53.912;15.214;2023-01-24T05:48:42;8.85;;;3.20;;
34814;SDS011;21030;53.912;15.214;2023-01-24T05:51:11;3.10;;;2.63;;
34814;SDS011;21030;53.912;15.214;2023-01-24T05:53:40;4.57;;;2.80;;
34814;SDS011;21030;53.912;15.214;2023-01-24T05:56:12;2.88;;;2.47;;
34814;SDS011;21030;53.912;15.214;2023-01-24T05:58:42;4.65;;;2.60;;
34814;SDS011;21030;53.912;15.214;2023-01-24T06:01:11;5.72;;;1.80;;
34814;SDS011;21030;53.912;15.214;2023-01-24T06:03:40;3.72;;;2.67;;
34814;SDS011;21030;53.912;15.214;2023-01-24T06:06:08;11.00;;;5.75;;
34814;SDS011;21030;53.912;15.214;2023-01-24T06:08:37;8.50;;;3.63;;
34814;SDS011;21030;53.912;15.214;2023-01-24T06:11:09;4.75;;;2.88;;
34814;SDS011;21030;53.912;15.214;2023-01-24T06:13:42;5.18;;;3.00;;
34814;SDS011;21030;53.912;15.214;2023-01-24T06:16:10;8.30;;;3.00;;
34814;SDS011;21030;53.912;15.214;2023-01-24T06:18:39;6.95;;;2.35;;
34814;SDS011;21030;53.912;15.214;2023-01-24T06:24:05;2.97;;;2.20;;
34814;SDS011;21030;53.912;15.214;2023-01-24T06:26:44;3.47;;;1.50;;
34814;SDS011;21030;53.912;15.214;2023-01-24T06:29:11;5.65;;;3.50;;
34814;SDS011;21030;53.912;15.214;2023-01-24T06:39:59;1.85;;;1.70;;
34814;SDS011;21030;53.912;15.214;2023-01-24T06:42:27;7.57;;;2.60;;
34814;SDS011;21030;53.912;15.214;2023-01-24T06:44:54;4.80;;;2.50;;
34814;SDS011;21030;53.912;15.214;2023-01-24T06:47:21;4.72;;;2.13;;
34814;SDS011;21030;53.912;15.214;2023-01-24T06:49:51;6.82;;;2.22;;
34814;SDS011;21030;53.912;15.214;2023-01-24T06:52:18;1.38;;;1.15;;
34814;SDS011;21030;53.912;15.214;2023-01-24T06:54:46;6.55;;;3.67;;
34814;SDS011;21030;53.912;15.214;2023-01-24T06:57:13;9.30;;;2.63;;
34814;SDS011;21030;53.912;15.214;2023-01-24T06:59:40;6.30;;;2.53;;
34814;SDS011;21030;53.912;15.214;2023-01-24T07:02:10;4.43;;;3.13;;
34814;SDS011;21030;53.912;15.214;2023-01-24T07:04:37;4.10;;;2.77;;
34814;SDS011;21030;53.912;15.214;2023-01-24T07:07:04;3.25;;;2.72;;
34814;SDS011;21030;53.912;15.214;2023-01-24T07:09:34;3.38;;;1.63;;
34814;SDS011;21030;53.912;15.214;2023-01-24T07:12:01;2.92;;;1.92;;
34814;SDS011;21030;53.912;15.214;2023-01-24T07:14:29;0.40;;;0.40;;
34814;SDS011;21030;53.912;15.214;2023-01-24T07:16:56;0.52;;;0.43;;
34814;SDS011;21030;53.912;15.214;2023-01-24T07:19:23;0.20;;;0.20;;
34814;SDS011;21030;53.912;15.214;2023-01-24T07:21:52;2.80;;;0.98;;
34814;SDS011;21030;53.912;15.214;2023-01-24T07:24:21;4.03;;;1.58;;
34814;SDS011;21030;53.912;15.214;2023-01-24T07:26:51;3.53;;;1.35;;
34814;SDS011;21030;53.912;15.214;2023-01-24T07:29:20;2.70;;;1.00;;
34814;SDS011;21030;53.912;15.214;2023-01-24T07:31:48;1.55;;;1.15;;
34814;SDS011;21030;53.912;15.214;2023-01-24T07:34:16;2.17;;;0.55;;
34814;SDS011;21030;53.912;15.214;2023-01-24T07:36:44;0.52;;;0.32;;
34814;SDS011;21030;53.912;15.214;2023-01-24T07:39:12;1.02;;;0.93;;
34814;SDS011;21030;53.912;15.214;2023-01-24T07:41:40;1.13;;;0.98;;
34814;SDS011;21030;53.912;15.214;2023-01-24T07:44:10;2.90;;;1.48;;
34814;SDS011;21030;53.912;15.214;2023-01-24T07:46:37;3.80;;;1.65;;
34814;SDS011;21030;53.912;15.214;2023-01-24T07:49:04;4.85;;;2.00;;
34814;SDS011;21030;53.912;15.214;2023-01-24T07:51:32;1.60;;;1.33;;
34814;SDS011;21030;53.912;15.214;2023-01-24T07:53:59;7.60;;;1.55;;
34814;SDS011;21030;53.912;15.214;2023-01-24T07:56:26;5.68;;;2.08;;
34814;SDS011;21030;53.912;15.214;2023-01-24T07:58:53;2.05;;;1.85;;
34814;SDS011;21030;53.912;15.214;2023-01-24T08:01:22;2.22;;;1.58;;
34814;SDS011;21030;53.912;15.214;2023-01-24T08:03:50;2.17;;;0.93;;
34814;SDS011;21030;53.912;15.214;2023-01-24T08:06:19;3.58;;;1.08;;
34814;SDS011;21030;53.912;15.214;2023-01-24T08:08:47;2.17;;;1.77;;
34814;SDS011;21030;53.912;15.214;2023-01-24T08:11:14;0.45;;;0.45;;
34814;SDS011;21030;53.912;15.214;2023-01-24T08:13:44;3.70;;;1.83;;
34814;SDS011;21030;53.912;15.214;2023-01-24T08:16:12;1.67;;;0.70;;
34814;SDS011;21030;53.912;15.214;2023-01-24T08:18:40;1.80;;;1.00;;
34814;SDS011;21030;53.912;15.214;2023-01-24T08:21:07;1.60;;;1.27;;
34814;SDS011;21030;53.912;15.214;2023-01-24T08:23:34;3.45;;;1.27;;
34814;SDS011;21030;53.912;15.214;2023-01-24T08:26:02;0.45;;;0.45;;
34814;SDS011;21030;53.912;15.214;2023-01-24T08:28:32;3.85;;;1.80;;
34814;SDS011;21030;53.912;15.214;2023-01-24T08:31:00;1.35;;;0.93;;
34814;SDS011;21030;53.912;15.214;2023-01-24T08:33:27;0.25;;;0.22;;
34814;SDS011;21030;53.912;15.214;2023-01-24T08:35:58;0.68;;;0.68;;
34814;SDS011;21030;53.912;15.214;2023-01-24T08:38:25;0.70;;;0.52;;
34814;SDS011;21030;53.912;15.214;2023-01-24T08:40:52;0.45;;;0.45;;
34814;SDS011;21030;53.912;15.214;2023-01-24T08:43:19;2.53;;;1.20;;
34814;SDS011;21030;53.912;15.214;2023-01-24T08:45:46;0.28;;;0.28;;
34814;SDS011;21030;53.912;15.214;2023-01-24T08:48:14;1.20;;;0.73;;
34814;SDS011;21030;53.912;15.214;2023-01-24T08:50:41;0.30;;;0.30;;
34814;SDS011;21030;53.912;15.214;2023-01-24T08:53:10;0.28;;;0.28;;
34814;SDS011;21030;53.912;15.214;2023-01-24T08:55:37;0.22;;;0.20;;
34814;SDS011;21030;53.912;15.214;2023-01-24T08:58:05;2.22;;;1.40;;
34814;SDS011;21030;53.912;15.214;2023-01-24T09:00:32;0.95;;;0.25;;
34814;SDS011;21030;53.912;15.214;2023-01-24T09:02:59;0.43;;;0.43;;
34814;SDS011;21030;53.912;15.214;2023-01-24T09:05:30;0.47;;;0.43;;
34814;SDS011;21030;53.912;15.214;2023-01-24T09:07:58;1.35;;;0.82;;
34814;SDS011;21030;53.912;15.214;2023-01-24T09:10:25;0.55;;;0.52;;
34814;SDS011;21030;53.912;15.214;2023-01-24T09:12:52;0.40;;;0.32;;
34814;SDS011;21030;53.912;15.214;2023-01-24T09:15:20;1.23;;;1.08;;
34814;SDS011;21030;53.912;15.214;2023-01-24T09:17:48;5.00;;;1.33;;
34814;SDS011;21030;53.912;15.214;2023-01-24T09:20:15;2.83;;;0.75;;
34814;SDS011;21030;53.912;15.214;2023-01-24T09:22:43;0.30;;;0.30;;
34814;SDS011;21030;53.912;15.214;2023-01-24T09:25:10;0.40;;;0.40;;
34814;SDS011;21030;53.912;15.214;2023-01-24T09:27:37;0.32;;;0.10;;
34814;SDS011;21030;53.912;15.214;2023-01-24T09:30:07;5.00;;;1.45;;
34814;SDS011;21030;53.912;15.214;2023-01-24T09:32:35;1.45;;;1.17;;
34814;SDS011;21030;53.912;15.214;2023-01-24T09:35:03;0.15;;;0.15;;
34814;SDS011;21030;53.912;15.214;2023-01-24T09:37:30;0.95;;;0.80;;
34814;SDS011;21030;53.912;15.214;2023-01-24T09:39:57;3.08;;;0.35;;
34814;SDS011;21030;53.912;15.214;2023-01-24T09:45:18;0.28;;;0.28;;
34814;SDS011;21030;53.912;15.214;2023-01-24T09:48:10;0.60;;;0.60;;
34814;SDS011;21030;53.912;15.214;2023-01-24T09:53:23;1.23;;;0.63;;
34814;SDS011;21030;53.912;15.214;2023-01-24T09:55:57;0.68;;;0.55;;
34814;SDS011;21030;53.912;15.214;2023-01-24T09:58:27;2.42;;;0.93;;
34814;SDS011;21030;53.912;15.214;2023-01-24T10:01:02;0.40;;;0.40;;
34814;SDS011;21030;53.912;15.214;2023-01-24T10:03:31;1.08;;;1.00;;
34814;SDS011;21030;53.912;15.214;2023-01-24T10:06:00;2.92;;;1.48;;
34814;SDS011;21030;53.912;15.214;2023-01-24T10:08:37;17.98;;;0.90;;
34814;SDS011;21030;53.912;15.214;2023-01-24T10:25:23;0.28;;;0.28;;
34814;SDS011;21030;53.912;15.214;2023-01-24T10:27:52;2.35;;;1.65;;
34814;SDS011;21030;53.912;15.214;2023-01-24T10:33:18;9.82;;;1.08;;
34814;SDS011;21030;53.912;15.214;2023-01-24T10:35:54;2.42;;;0.80;;
34814;SDS011;21030;53.912;15.214;2023-01-24T10:38:25;3.80;;;0.65;;
34814;SDS011;21030;53.912;15.214;2023-01-24T10:40:56;2.78;;;1.65;;
34814;SDS011;21030;53.912;15.214;2023-01-24T10:43:41;1.45;;;0.95;;
34814;SDS011;21030;53.912;15.214;2023-01-24T10:49:06;6.95;;;2.17;;
34814;SDS011;21030;53.912;15.214;2023-01-24T10:51:40;3.67;;;1.92;;
34814;SDS011;21030;53.912;15.214;2023-01-24T10:54:10;1.02;;;0.88;;
34814;SDS011;21030;53.912;15.214;2023-01-24T10:56:47;2.63;;;1.42;;
34814;SDS011;21030;53.912;15.214;2023-01-24T10:59:14;1.67;;;0.95;;
34814;SDS011;21030;53.912;15.214;2023-01-24T11:01:43;2.65;;;1.33;;
34814;SDS011;21030;53.912;15.214;2023-01-24T11:06:53;3.38;;;1.30;;
34814;SDS011;21030;53.912;15.214;2023-01-24T11:09:21;13.25;;;1.73;;
34814;SDS011;21030;53.912;15.214;2023-01-24T11:11:56;2.92;;;1.60;;
34814;SDS011;21030;53.912;15.214;2023-01-24T11:14:30;0.85;;;0.85;;
34814;SDS011;21030;53.912;15.214;2023-01-24T11:17:01;5.35;;;1.38;;
34814;SDS011;21030;53.912;15.214;2023-01-24T11:22:22;5.82;;;1.95;;
34814;SDS011;21030;53.912;15.214;2023-01-24T11:24:50;4.13;;;2.88;;
34814;SDS011;21030;53.912;15.214;2023-01-24T11:27:24;2.67;;;2.22;;
34814;SDS011;21030;53.912;15.214;2023-01-24T11:30:10;4.78;;;2.20;;
34814;SDS011;21030;53.912;15.214;2023-01-24T11:35:54;2.15;;;1.42;;
34814;SDS011;21030;53.912;15.214;2023-01-24T12:12:37;3.58;;;1.60;;
34814;SDS011;21030;53.912;15.214;2023-01-24T12:17:37;5.68;;;2.22;;
34814;SDS011;21030;53.912;15.214;2023-01-24T12:20:15;1.00;;;0.95;;
34814;SDS011;21030;53.912;15.214;2023-01-24T12:22:57;2.40;;;1.80;;
34814;SDS011;21030;53.912;15.214;2023-01-24T12:25:31;2.65;;;1.30;;
34814;SDS011;21030;53.912;15.214;2023-01-24T12:28:04;4.15;;;1.77;;
34814;SDS011;21030;53.912;15.214;2023-01-24T12:30:47;4.72;;;1.90;;
34814;SDS011;21030;53.912;15.214;2023-01-24T12:35:53;5.60;;;1.63;;
34814;SDS011;21030;53.912;15.214;2023-01-24T12:38:26;13.45;;;2.00;;
34814;SDS011;21030;53.912;15.214;2023-01-24T12:49:39;6.00;;;3.47;;
34814;SDS011;21030;53.912;15.214;2023-01-24T12:54:50;13.50;;;1.27;;
34814;SDS011;21030;53.912;15.214;2023-01-24T12:57:41;5.28;;;2.90;;
34814;SDS011;21030;53.912;15.214;2023-01-24T13:00:20;3.40;;;1.95;;
34814;SDS011;21030;53.912;15.214;2023-01-24T13:11:20;1.58;;;1.35;;
34814;SDS011;21030;53.912;15.214;2023-01-24T13:25:21;1.25;;;0.77;;
34814;SDS011;21030;53.912;15.214;2023-01-24T13:33:38;5.68;;;2.63;;
34814;SDS011;21030;53.912;15.214;2023-01-24T13:36:25;18.17;;;2.17;;
34814;SDS011;21030;53.912;15.214;2023-01-24T13:38:59;1.75;;;0.80;;
34814;SDS011;21030;53.912;15.214;2023-01-24T13:44:01;2.17;;;1.93;;
34814;SDS011;21030;53.912;15.214;2023-01-24T13:49:31;8.20;;;3.03;;
34814;SDS011;21030;53.912;15.214;2023-01-24T13:52:00;2.80;;;1.97;;
34814;SDS011;21030;53.912;15.214;2023-01-24T13:54:42;9.52;;;2.38;;
34814;SDS011;21030;53.912;15.214;2023-01-24T14:00:03;2.20;;;1.13;;
34814;SDS011;21030;53.912;15.214;2023-01-24T14:10:48;1.20;;;1.10;;
34814;SDS011;21030;53.912;15.214;2023-01-24T14:16:13;7.38;;;3.13;;
34814;SDS011;21030;53.912;15.214;2023-01-24T14:19:10;4.32;;;1.50;;
34814;SDS011;21030;53.912;15.214;2023-01-24T14:24:22;3.80;;;1.98;;
34814;SDS011;21030;53.912;15.214;2023-01-24T14:26:51;3.03;;;2.47;;
34814;SDS011;21030;53.912;15.214;2023-01-24T14:29:20;2.47;;;2.20;;
34814;SDS011;21030;53.912;15.214;2023-01-24T14:31:50;1.67;;;1.55;;
34814;SDS011;21030;53.912;15.214;2023-01-24T14:35:07;7.05;;;2.63;;
34814;SDS011;21030;53.912;15.214;2023-01-24T14:37:16;10.15;;;3.67;;
34814;SDS011;21030;53.912;15.214;2023-01-24T14:39:44;31.30;;;3.67;;
34814;SDS011;21030;53.912;15.214;2023-01-24T14:42:14;6.93;;;3.30;;
34814;SDS011;21030;53.912;15.214;2023-01-24T14:47:28;5.05;;;2.88;;
34814;SDS011;21030;53.912;15.214;2023-01-24T14:49:56;3.78;;;3.03;;
34814;SDS011;21030;53.912;15.214;2023-01-24T14:52:26;6.63;;;2.70;;
34814;SDS011;21030;53.912;15.214;2023-01-24T14:55:00;11.88;;;4.05;;
34814;SDS011;21030;53.912;15.214;2023-01-24T14:57:47;6.85;;;2.13;;
34814;SDS011;21030;53.912;15.214;2023-01-24T15:00:15;2.10;;;1.42;;
34814;SDS011;21030;53.912;15.214;2023-01-24T15:03:00;3.10;;;1.92;;
34814;SDS011;21030;53.912;15.214;2023-01-24T15:05:33;1.83;;;1.67;;
34814;SDS011;21030;53.912;15.214;2023-01-24T15:08:05;7.75;;;2.75;;
34814;SDS011;21030;53.912;15.214;2023-01-24T15:10:39;7.05;;;3.65;;
34814;SDS011;21030;53.912;15.214;2023-01-24T15:13:09;9.98;;;4.72;;
34814;SDS011;21030;53.912;15.214;2023-01-24T15:15:45;6.13;;;3.33;;
34814;SDS011;21030;53.912;15.214;2023-01-24T15:18:24;11.45;;;3.42;;
34814;SDS011;21030;53.912;15.214;2023-01-24T15:21:02;2.72;;;2.42;;
34814;SDS011;21030;53.912;15.214;2023-01-24T15:23:30;17.40;;;3.58;;
34814;SDS011;21030;53.912;15.214;2023-01-24T15:26:19;18.98;;;4.28;;
34814;SDS011;21030;53.912;15.214;2023-01-24T15:28:56;9.13;;;4.30;;
34814;SDS011;21030;53.912;15.214;2023-01-24T15:31:27;3.70;;;3.08;;
34814;SDS011;21030;53.912;15.214;2023-01-24T15:33:57;7.13;;;3.63;;
34814;SDS011;21030;53.912;15.214;2023-01-24T15:36:26;1.90;;;1.65;;
34814;SDS011;21030;53.912;15.214;2023-01-24T15:38:56;6.53;;;2.88;;
34814;SDS011;21030;53.912;15.214;2023-01-24T15:41:25;11.70;;;3.05;;
34814;SDS011;21030;53.912;15.214;2023-01-24T15:44:12;6.22;;;3.35;;
34814;SDS011;21030;53.912;15.214;2023-01-24T15:46:41;4.88;;;3.75;;
34814;SDS011;21030;53.912;15.214;2023-01-24T15:49:36;3.40;;;1.90;;
34814;SDS011;21030;53.912;15.214;2023-01-24T15:54:39;10.00;;;4.15;;
34814;SDS011;21030;53.912;15.214;2023-01-24T15:57:24;5.43;;;2.85;;
34814;SDS011;21030;53.912;15.214;2023-01-24T16:00:02;7.65;;;4.22;;
34814;SDS011;21030;53.912;15.214;2023-01-24T16:02:38;17.05;;;4.32;;
34814;SDS011;21030;53.912;15.214;2023-01-24T16:05:12;4.38;;;3.63;;
34814;SDS011;21030;53.912;15.214;2023-01-24T16:07:44;2.90;;;1.85;;
34814;SDS011;21030;53.912;15.214;2023-01-24T16:10:12;6.22;;;3.70;;
34814;SDS011;21030;53.912;15.214;2023-01-24T16:12:40;7.78;;;3.05;;
34814;SDS011;21030;53.912;15.214;2023-01-24T16:15:09;4.65;;;2.78;;
34814;SDS011;21030;53.912;15.214;2023-01-24T16:17:41;3.05;;;1.92;;
34814;SDS011;21030;53.912;15.214;2023-01-24T16:20:18;2.72;;;1.65;;
34814;SDS011;21030;53.912;15.214;2023-01-24T16:22:47;5.10;;;2.50;;
34814;SDS011;21030;53.912;15.214;2023-01-24T16:25:15;4.20;;;2.72;;
34814;SDS011;21030;53.912;15.214;2023-01-24T16:27:45;6.63;;;2.70;;
34814;SDS011;21030;53.912;15.214;2023-01-24T16:30:20;21.25;;;4.47;;
34814;SDS011;21030;53.912;15.214;2023-01-24T16:32:49;17.77;;;7.50;;
34814;SDS011;21030;53.912;15.214;2023-01-24T16:35:16;10.20;;;4.28;;
34814;SDS011;21030;53.912;15.214;2023-01-24T16:37:44;14.07;;;6.40;;
34814;SDS011;21030;53.912;15.214;2023-01-24T16:40:12;8.63;;;4.97;;
34814;SDS011;21030;53.912;15.214;2023-01-24T16:42:42;6.68;;;3.97;;
34814;SDS011;21030;53.912;15.214;2023-01-24T16:45:12;15.45;;;3.00;;
34814;SDS011;21030;53.912;15.214;2023-01-24T16:50:09;10.77;;;5.18;;
34814;SDS011;21030;53.912;15.214;2023-01-24T16:52:38;18.23;;;6.40;;
34814;SDS011;21030;53.912;15.214;2023-01-24T16:55:06;19.23;;;4.63;;
34814;SDS011;21030;53.912;15.214;2023-01-24T16:57:34;11.82;;;5.78;;
34814;SDS011;21030;53.912;15.214;2023-01-24T17:00:03;10.60;;;5.18;;
34814;SDS011;21030;53.912;15.214;2023-01-24T17:02:33;7.57;;;4.95;;
34814;SDS011;21030;53.912;15.214;2023-01-24T17:05:00;4.72;;;3.78;;
34814;SDS011;21030;53.912;15.214;2023-01-24T17:07:27;2.70;;;1.08;;
34814;SDS011;21030;53.912;15.214;2023-01-24T17:09:56;1.00;;;0.88;;
34814;SDS011;21030;53.912;15.214;2023-01-24T17:12:27;1.83;;;1.73;;
34814;SDS011;21030;53.912;15.214;2023-01-24T17:14:56;0.82;;;0.82;;
34814;SDS011;21030;53.912;15.214;2023-01-24T17:17:24;1.45;;;1.30;;
34814;SDS011;21030;53.912;15.214;2023-01-24T17:19:52;2.15;;;1.85;;
34814;SDS011;21030;53.912;15.214;2023-01-24T17:22:19;4.13;;;2.08;;
34814;SDS011;21030;53.912;15.214;2023-01-24T17:24:47;4.28;;;2.42;;
34814;SDS011;21030;53.912;15.214;2023-01-24T17:27:14;18.20;;;2.78;;
34814;SDS011;21030;53.912;15.214;2023-01-24T17:29:41;13.25;;;5.07;;
34814;SDS011;21030;53.912;15.214;2023-01-24T17:32:09;3.00;;;2.20;;
34814;SDS011;21030;53.912;15.214;2023-01-24T17:34:36;3.88;;;1.52;;
34814;SDS011;21030;53.912;15.214;2023-01-24T17:37:03;2.28;;;1.10;;
34814;SDS011;21030;53.912;15.214;2023-01-24T17:39:30;2.03;;;1.33;;
34814;SDS011;21030;53.912;15.214;2023-01-24T17:41:57;5.20;;;2.47;;
34814;SDS011;21030;53.912;15.214;2023-01-24T17:44:24;4.47;;;2.53;;
34814;SDS011;21030;53.912;15.214;2023-01-24T17:46:52;4.78;;;2.35;;
34814;SDS011;21030;53.912;15.214;2023-01-24T17:49:19;1.67;;;1.35;;